Time;durP1;ratioP1;P1;durP2;ratioP2;P2;SDS_P1;SDS_P2;PMS_P1;PMS_P2;Temp;Humidity;BMP_temperature;BMP_pressure;BME280_temperature;BME280_humidity;BME280_pressure;Samples;Min_cycle;Max_cycle;Signal;HPM_P1;HPM_P2
2022/01/04 00:01:28;;;;;;;23.58;10.30;;;;;;;;;;5092898;28;20210;-48
2022/01/04 00:03:54;;;;;;;20.58;10.95;;;;;;;;;;5100978;28;20039;-48
2022/01/04 00:06:20;;;;;;;31.92;14.93;;;;;;;;;;5111248;28;20074;-49
2022/01/04 00:08:46;;;;;;;40.80;18.80;;;;;;;;;;5110745;28;20047;-50
2022/01/04 00:11:18;;;;;;;28.75;14.02;;;;;;;;;;5102730;28;20610;-51
2022/01/04 00:13:45;;;;;;;20.42;10.63;;;;;;;;;;5093246;28;20121;-50
2022/01/04 00:16:11;;;;;;;31.23;14.45;;;;;;;;;;5111718;28;20104;-50
2022/01/04 00:18:41;;;;;;;24.63;11.02;;;;;;;;;;5111382;28;20397;-49
2022/01/04 00:21:10;;;;;;;29.98;14.10;;;;;;;;;;5110339;28;20043;-49
2022/01/04 00:23:39;;;;;;;28.10;13.32;;;;;;;;;;5111286;28;20123;-50
2022/01/04 00:26:05;;;;;;;25.42;13.85;;;;;;;;;;5111050;28;20081;-48
2022/01/04 00:28:31;;;;;;;29.63;13.75;;;;;;;;;;5075608;28;20039;-47
2022/01/04 00:30:57;;;;;;;21.65;12.30;;;;;;;;;;5110970;28;20114;-48
2022/01/04 00:33:26;;;;;;;23.10;12.52;;;;;;;;;;5092456;28;20074;-49
2022/01/04 00:35:52;;;;;;;32.55;15.68;;;;;;;;;;5092068;28;20119;-48
2022/01/04 00:38:18;;;;;;;19.98;10.38;;;;;;;;;;5110943;28;20035;-49
2022/01/04 00:40:44;;;;;;;26.58;13.73;;;;;;;;;;5092419;28;20047;-47
2022/01/04 00:43:10;;;;;;;21.73;12.07;;;;;;;;;;5095473;22;20363;-50
2022/01/04 00:45:37;;;;;;;29.45;14.50;;;;;;;;;;5121499;27;20044;-50
2022/01/04 00:50:33;;;;;;;31.00;17.58;;;;;;;;;;5109550;28;20043;-48
2022/01/04 00:53:00;;;;;;;26.15;14.07;;;;;;;;;;5125596;27;20469;-51
2022/01/04 00:55:29;;;;;;;23.15;11.48;;;;;;;;;;5138563;27;20108;-48
2022/01/04 00:57:56;;;;;;;18.08;11.48;;;;;;;;;;5147708;27;20047;-48
2022/01/04 01:00:22;;;;;;;26.90;14.73;;;;;;;;;;5130515;27;20035;-48
2022/01/04 01:02:48;;;;;;;26.35;12.93;;;;;;;;;;5117611;27;20042;-47
2022/01/04 01:05:15;;;;;;;23.73;12.82;;;;;;;;;;5101536;28;20046;-48
2022/01/04 01:07:41;;;;;;;22.88;12.77;;;;;;;;;;5143588;27;20118;-49
2022/01/04 01:10:39;;;;;;;25.75;14.45;;;;;;;;;;5141693;27;20395;-51
2022/01/04 01:13:05;;;;;;;19.35;11.00;;;;;;;;;;5131762;27;20043;-48
2022/01/04 01:15:31;;;;;;;25.73;13.13;;;;;;;;;;5130437;27;20035;-48
2022/01/04 01:17:57;;;;;;;26.58;13.35;;;;;;;;;;5130715;27;20395;-49
2022/01/04 01:20:24;;;;;;;23.27;12.20;;;;;;;;;;5129578;27;20047;-49
2022/01/04 01:22:50;;;;;;;22.33;11.40;;;;;;;;;;5102916;28;20067;-50
2022/01/04 01:25:20;;;;;;;28.10;13.13;;;;;;;;;;5129850;28;20039;-50
2022/01/04 01:27:47;;;;;;;21.77;11.65;;;;;;;;;;5129881;27;20050;-49
2022/01/04 01:30:14;;;;;;;21.38;11.63;;;;;;;;;;5141715;27;20046;-48
2022/01/04 01:32:44;;;;;;;21.20;10.82;;;;;;;;;;5109691;28;20039;-52
2022/01/04 01:35:10;;;;;;;24.55;12.70;;;;;;;;;;5131194;28;20043;-48
2022/01/04 01:37:36;;;;;;;23.45;11.82;;;;;;;;;;5136775;27;20039;-48
2022/01/04 01:40:06;;;;;;;19.83;10.90;;;;;;;;;;5117873;27;20043;-48
2022/01/04 01:42:32;;;;;;;24.27;12.45;;;;;;;;;;5132276;27;20118;-47
2022/01/04 01:44:59;;;;;;;20.88;10.50;;;;;;;;;;5130928;28;20065;-50
2022/01/04 01:47:25;;;;;;;24.65;12.02;;;;;;;;;;5147202;27;20130;-48
2022/01/04 01:49:51;;;;;;;20.02;11.07;;;;;;;;;;5132547;27;20150;-47
2022/01/04 01:52:17;;;;;;;22.65;10.60;;;;;;;;;;5135829;27;20042;-47
2022/01/04 01:54:46;;;;;;;23.98;11.55;;;;;;;;;;5130591;28;20445;-48
2022/01/04 01:57:13;;;;;;;21.08;11.60;;;;;;;;;;5130467;28;20039;-48
2022/01/04 01:59:39;;;;;;;21.05;11.35;;;;;;;;;;5147373;27;20103;-50
2022/01/04 02:02:05;;;;;;;20.88;10.80;;;;;;;;;;5141976;27;20040;-49
2022/01/04 02:04:31;;;;;;;18.85;10.50;;;;;;;;;;5150855;27;20147;-48
2022/01/04 02:06:57;;;;;;;21.42;10.85;;;;;;;;;;5132250;27;20484;-47
2022/01/04 02:09:26;;;;;;;24.75;11.20;;;;;;;;;;5133968;27;20553;-47
2022/01/04 02:11:52;;;;;;;19.40;10.63;;;;;;;;;;5136631;27;20488;-47
2022/01/04 02:14:19;;;;;;;22.90;11.43;;;;;;;;;;5136088;27;20038;-49
2022/01/04 02:16:45;;;;;;;22.58;11.77;;;;;;;;;;5150290;27;20045;-48
2022/01/04 02:19:11;;;;;;;21.13;11.18;;;;;;;;;;5125067;27;20027;-50
2022/01/04 02:21:37;;;;;;;25.63;11.32;;;;;;;;;;5132920;27;20035;-48
2022/01/04 02:24:04;;;;;;;27.42;12.00;;;;;;;;;;5123200;27;20046;-49
2022/01/04 02:26:33;;;;;;;26.23;12.40;;;;;;;;;;5135540;27;20046;-48
2022/01/04 02:28:59;;;;;;;26.23;12.25;;;;;;;;;;5141760;27;20509;-49
2022/01/04 02:31:27;;;;;;;19.58;11.38;;;;;;;;;;5134405;27;20086;-53
2022/01/04 02:33:53;;;;;;;24.40;12.35;;;;;;;;;;5136314;27;20082;-48
2022/01/04 02:36:19;;;;;;;24.35;12.25;;;;;;;;;;5132501;27;20061;-49
2022/01/04 02:38:45;;;;;;;24.52;12.07;;;;;;;;;;5144277;27;20046;-48
2022/01/04 02:41:11;;;;;;;29.67;12.45;;;;;;;;;;5114343;27;20077;-49
2022/01/04 02:43:40;;;;;;;22.42;12.35;;;;;;;;;;5114382;27;20082;-46
2022/01/04 02:46:06;;;;;;;25.08;12.65;;;;;;;;;;5115308;27;20051;-47
2022/01/04 02:48:32;;;;;;;21.23;12.57;;;;;;;;;;5149200;27;20039;-47
2022/01/04 02:51:00;;;;;;;28.02;14.07;;;;;;;;;;5136224;27;20035;-47
2022/01/04 02:53:29;;;;;;;25.35;13.48;;;;;;;;;;5132175;27;20480;-48
2022/01/04 02:55:55;;;;;;;24.85;13.35;;;;;;;;;;5141364;27;20565;-53
2022/01/04 02:58:21;;;;;;;27.35;13.27;;;;;;;;;;5129615;27;20071;-49
2022/01/04 03:00:47;;;;;;;29.75;16.40;;;;;;;;;;5122569;27;20091;-47
2022/01/04 03:03:13;;;;;;;25.77;13.50;;;;;;;;;;5129879;27;20031;-49
2022/01/04 03:05:43;;;;;;;24.85;13.65;;;;;;;;;;5106992;27;20035;-48
2022/01/04 03:08:09;;;;;;;27.13;13.48;;;;;;;;;;5115915;27;20039;-49
2022/01/04 03:10:35;;;;;;;27.90;15.63;;;;;;;;;;5134050;27;20073;-51
2022/01/04 03:13:04;;;;;;;21.70;13.38;;;;;;;;;;5133924;27;20114;-49
2022/01/04 03:15:30;;;;;;;29.27;14.90;;;;;;;;;;5134651;27;20039;-49
2022/01/04 03:17:56;;;;;;;29.13;15.40;;;;;;;;;;5127333;27;20186;-49
2022/01/04 03:20:22;;;;;;;25.40;14.15;;;;;;;;;;5127919;27;20483;-50
2022/01/04 03:22:48;;;;;;;30.50;14.35;;;;;;;;;;5120369;27;20113;-48
2022/01/04 03:25:14;;;;;;;29.90;14.57;;;;;;;;;;5145873;27;20551;-48
2022/01/04 03:27:40;;;;;;;30.38;16.33;;;;;;;;;;5130807;27;20118;-48
2022/01/04 03:30:07;;;;;;;28.40;15.35;;;;;;;;;;5133734;27;20062;-48
2022/01/04 03:32:33;;;;;;;28.52;16.70;;;;;;;;;;5097764;27;20227;-49
2022/01/04 03:34:59;;;;;;;35.85;15.90;;;;;;;;;;5109178;27;20199;-49
2022/01/04 03:37:25;;;;;;;29.63;15.68;;;;;;;;;;5120822;27;20053;-47
2022/01/04 03:39:51;;;;;;;33.72;16.70;;;;;;;;;;5151000;27;20046;-47
2022/01/04 03:42:17;;;;;;;33.90;16.40;;;;;;;;;;5122123;27;20078;-50
2022/01/04 03:44:43;;;;;;;33.75;17.30;;;;;;;;;;5134527;27;20071;-51
2022/01/04 03:47:09;;;;;;;31.83;16.80;;;;;;;;;;5132019;22;20131;-48
2022/01/04 03:49:35;;;;;;;28.10;17.80;;;;;;;;;;5074143;28;20128;-46
2022/01/04 03:52:01;;;;;;;36.60;20.17;;;;;;;;;;5092080;28;20115;-50
2022/01/04 03:54:27;;;;;;;35.75;18.33;;;;;;;;;;5065542;28;20036;-47
2022/01/04 03:56:53;;;;;;;31.33;18.38;;;;;;;;;;5054218;28;20037;-52
2022/01/04 03:59:19;;;;;;;42.60;20.75;;;;;;;;;;5053584;28;20048;-48
2022/01/04 04:01:47;;;;;;;45.55;23.45;;;;;;;;;;5062389;28;20465;-53
2022/01/04 04:04:19;;;;;;;50.33;25.95;;;;;;;;;;5061941;28;20055;-49
2022/01/04 04:06:48;;;;;;;47.50;25.27;;;;;;;;;;5053743;28;20037;-50
2022/01/04 04:09:14;;;;;;;43.55;22.05;;;;;;;;;;5054216;28;20120;-47
2022/01/04 04:11:41;;;;;;;33.45;18.40;;;;;;;;;;5053392;28;20036;-49
2022/01/04 04:14:07;;;;;;;34.75;18.27;;;;;;;;;;5082859;28;20507;-49
2022/01/04 04:16:33;;;;;;;32.75;19.63;;;;;;;;;;5067939;28;20528;-48
2022/01/04 04:19:03;;;;;;;36.63;19.90;;;;;;;;;;5070194;28;20111;-48
2022/01/04 04:21:29;;;;;;;31.95;17.73;;;;;;;;;;5086512;28;20037;-53
2022/01/04 04:23:55;;;;;;;35.05;17.80;;;;;;;;;;5071084;28;20036;-48
2022/01/04 04:26:24;;;;;;;34.80;18.45;;;;;;;;;;5059436;28;20090;-47
2022/01/04 04:28:50;;;;;;;40.53;19.35;;;;;;;;;;5053181;28;20504;-47
2022/01/04 04:31:19;;;;;;;34.03;18.55;;;;;;;;;;5052805;28;20123;-49
2022/01/04 04:33:45;;;;;;;35.55;20.60;;;;;;;;;;5071853;28;20033;-49
2022/01/04 04:36:11;;;;;;;34.03;19.35;;;;;;;;;;5052700;28;20465;-48
2022/01/04 04:38:41;;;;;;;35.80;20.27;;;;;;;;;;5078056;28;20048;-48
2022/01/04 04:41:07;;;;;;;35.25;19.08;;;;;;;;;;5083936;28;20086;-51
2022/01/04 04:43:36;;;;;;;34.20;17.95;;;;;;;;;;5083118;28;20291;-49
2022/01/04 04:48:30;;;;;;;32.25;16.90;;;;;;;;;;5129625;27;20039;-48
2022/01/04 04:50:59;;;;;;;31.38;19.10;;;;;;;;;;5132081;27;20047;-51
2022/01/04 04:53:31;;;;;;;28.90;17.42;;;;;;;;;;5099230;28;20038;-47
2022/01/04 04:55:57;;;;;;;26.63;16.48;;;;;;;;;;5093118;28;20460;-52
2022/01/04 04:58:23;;;;;;;29.25;18.75;;;;;;;;;;5121919;27;20054;-51
2022/01/04 05:00:49;;;;;;;31.42;17.30;;;;;;;;;;5131632;27;20027;-50
2022/01/04 05:03:18;;;;;;;29.77;17.50;;;;;;;;;;5129481;27;20043;-48
2022/01/04 05:05:45;;;;;;;34.05;18.75;;;;;;;;;;5118014;27;20043;-48
2022/01/04 05:08:11;;;;;;;30.80;18.25;;;;;;;;;;5091904;27;20479;-52
2022/01/04 05:10:37;;;;;;;35.70;18.67;;;;;;;;;;5092854;28;20233;-48
2022/01/04 05:13:03;;;;;;;32.28;16.92;;;;;;;;;;5098139;27;20070;-49
2022/01/04 05:15:32;;;;;;;34.22;17.92;;;;;;;;;;5102120;28;20050;-48
2022/01/04 05:18:03;;;;;;;32.70;17.65;;;;;;;;;;5125962;27;20063;-47
2022/01/04 05:20:29;;;;;;;27.73;17.73;;;;;;;;;;5093030;28;20112;-48
2022/01/04 05:23:04;;;;;;;27.85;16.83;;;;;;;;;;5115320;28;20392;-47
2022/01/04 05:25:30;;;;;;;27.08;17.08;;;;;;;;;;5127220;28;20407;-47
2022/01/04 05:27:56;;;;;;;28.65;15.82;;;;;;;;;;5134059;27;20507;-49
2022/01/04 05:30:44;;;;;;;32.70;18.10;;;;;;;;;;5120933;27;20076;-50
2022/01/04 05:33:10;;;;;;;31.20;17.55;;;;;;;;;;5133287;27;20049;-52
2022/01/04 05:35:39;;;;;;;31.35;17.63;;;;;;;;;;5117480;27;20043;-50
2022/01/04 05:38:11;;;;;;;36.08;18.48;;;;;;;;;;5140243;27;20491;-49
2022/01/04 05:40:45;;;;;;;32.70;18.30;;;;;;;;;;5144179;27;20050;-50
2022/01/04 05:43:10;;;;;;;33.92;19.25;;;;;;;;;;5141273;27;20035;-47
2022/01/04 05:45:46;;;;;;;31.08;18.65;;;;;;;;;;5117051;27;20039;-48
2022/01/04 05:48:12;;;;;;;29.98;18.77;;;;;;;;;;5143579;27;20047;-48
2022/01/04 05:50:38;;;;;;;38.28;19.85;;;;;;;;;;5135798;27;20525;-48
2022/01/04 05:53:04;;;;;;;33.45;18.92;;;;;;;;;;5135425;27;20035;-48
2022/01/04 05:55:30;;;;;;;33.28;18.45;;;;;;;;;;5142629;27;20071;-48
2022/01/04 05:57:59;;;;;;;33.75;18.00;;;;;;;;;;5152889;27;20503;-50
2022/01/04 06:00:28;;;;;;;36.13;19.65;;;;;;;;;;5130057;27;20137;-47
2022/01/04 06:02:55;;;;;;;32.95;18.70;;;;;;;;;;5153205;27;20258;-48
2022/01/04 06:05:24;;;;;;;36.42;18.90;;;;;;;;;;5146042;27;20077;-49
2022/01/04 06:08:05;;;;;;;32.33;18.85;;;;;;;;;;5134541;27;20077;-49
2022/01/04 06:10:38;;;;;;;32.40;18.23;;;;;;;;;;5146854;27;20046;-50
2022/01/04 06:15:30;;;;;;;31.17;18.10;;;;;;;;;;5142703;27;20082;-49
2022/01/04 06:17:57;;;;;;;31.90;18.65;;;;;;;;;;5099782;27;20072;-48
2022/01/04 06:20:24;;;;;;;31.23;17.65;;;;;;;;;;5129333;27;20039;-50
2022/01/04 06:22:59;;;;;;;31.42;17.88;;;;;;;;;;5155137;27;20062;-53
2022/01/04 06:25:39;;;;;;;28.92;17.75;;;;;;;;;;5153808;27;20043;-49
2022/01/04 06:28:06;;;;;;;32.42;18.33;;;;;;;;;;5144842;27;20047;-49
2022/01/04 06:30:32;;;;;;;29.10;18.38;;;;;;;;;;5118007;27;20172;-50
2022/01/04 06:33:01;;;;;;;33.95;18.63;;;;;;;;;;5143287;27;20039;-48
2022/01/04 06:35:27;;;;;;;38.17;20.33;;;;;;;;;;5138977;27;20031;-48
2022/01/04 06:37:53;;;;;;;32.33;18.60;;;;;;;;;;5135326;27;20050;-49
2022/01/04 06:40:28;;;;;;;35.42;19.48;;;;;;;;;;5131724;27;20490;-48
2022/01/04 06:42:55;;;;;;;31.70;19.40;;;;;;;;;;5140102;27;20038;-47
2022/01/04 06:45:21;;;;;;;29.75;17.98;;;;;;;;;;5124167;27;20088;-49
2022/01/04 06:47:47;;;;;;;30.63;18.42;;;;;;;;;;5134821;27;20045;-50
2022/01/04 06:50:15;;;;;;;33.55;18.73;;;;;;;;;;5136471;27;20047;-49
2022/01/04 06:52:44;;;;;;;33.92;19.23;;;;;;;;;;5128384;27;20074;-48
2022/01/04 06:55:10;;;;;;;30.50;19.02;;;;;;;;;;5120932;27;20764;-49
2022/01/04 06:57:36;;;;;;;36.38;19.92;;;;;;;;;;5133810;27;20076;-49
2022/01/04 07:00:06;;;;;;;30.40;18.85;;;;;;;;;;5149015;27;20053;-49
2022/01/04 07:02:32;;;;;;;32.90;19.85;;;;;;;;;;5144740;27;20035;-49
2022/01/04 07:04:58;;;;;;;34.42;20.20;;;;;;;;;;5146965;27;20532;-50
2022/01/04 07:07:24;;;;;;;34.88;19.88;;;;;;;;;;5142506;27;20042;-49
2022/01/04 07:09:50;;;;;;;35.60;21.08;;;;;;;;;;5115184;27;20047;-50
2022/01/04 07:12:19;;;;;;;37.28;20.67;;;;;;;;;;5143336;27;20058;-47
2022/01/04 07:14:48;;;;;;;36.30;21.60;;;;;;;;;;5152627;27;20030;-48
2022/01/04 07:17:22;;;;;;;34.15;19.92;;;;;;;;;;5144689;27;20043;-49
2022/01/04 07:19:49;;;;;;;36.85;19.83;;;;;;;;;;5143806;27;20034;-49
2022/01/04 07:22:15;;;;;;;36.78;22.27;;;;;;;;;;5144653;27;20046;-48
2022/01/04 07:24:41;;;;;;;36.03;19.90;;;;;;;;;;5143511;27;20122;-49
2022/01/04 07:27:07;;;;;;;36.35;20.35;;;;;;;;;;5124842;27;20488;-51
2022/01/04 07:29:34;;;;;;;35.92;21.02;;;;;;;;;;5142895;27;20442;-47
2022/01/04 07:32:00;;;;;;;33.05;19.80;;;;;;;;;;5113576;27;20043;-49
2022/01/04 07:34:26;;;;;;;37.05;20.40;;;;;;;;;;5122632;27;20506;-50
2022/01/04 07:36:52;;;;;;;35.70;20.27;;;;;;;;;;5141231;27;20125;-49
2022/01/04 07:39:18;;;;;;;36.90;20.67;;;;;;;;;;5132946;27;20030;-48
2022/01/04 07:41:44;;;;;;;36.72;19.80;;;;;;;;;;5132945;27;20506;-48
2022/01/04 07:44:10;;;;;;;36.92;20.40;;;;;;;;;;5132935;27;20039;-48
2022/01/04 07:46:36;;;;;;;36.45;19.52;;;;;;;;;;5141389;27;20042;-53
2022/01/04 07:49:05;;;;;;;31.80;20.70;;;;;;;;;;5131490;27;20035;-48
2022/01/04 07:51:40;;;;;;;34.35;20.88;;;;;;;;;;5139925;27;20363;-50
2022/01/04 07:54:06;;;;;;;35.85;20.75;;;;;;;;;;5145163;27;20030;-49
2022/01/04 07:56:32;;;;;;;36.85;19.98;;;;;;;;;;5137524;27;20096;-49
2022/01/04 07:59:00;;;;;;;35.22;19.40;;;;;;;;;;5125303;27;20042;-50
2022/01/04 08:01:28;;;;;;;39.58;20.92;;;;;;;;;;5135235;27;20043;-48
2022/01/04 08:03:54;;;;;;;37.00;19.90;;;;;;;;;;5142677;27;20052;-49
2022/01/04 08:06:20;;;;;;;39.80;20.63;;;;;;;;;;5140711;27;20351;-49
2022/01/04 08:08:47;;;;;;;35.38;22.27;;;;;;;;;;5148502;27;20068;-50
2022/01/04 08:11:13;;;;;;;34.20;20.70;;;;;;;;;;5135128;27;20046;-48
2022/01/04 08:13:39;;;;;;;42.85;24.17;;;;;;;;;;5116579;27;20487;-50
2022/01/04 08:16:06;;;;;;;39.63;22.98;;;;;;;;;;5134309;27;20041;-47
2022/01/04 08:18:32;;;;;;;46.25;24.60;;;;;;;;;;5142264;27;20066;-50
2022/01/04 08:20:58;;;;;;;50.97;27.20;;;;;;;;;;5135905;27;20074;-52
2022/01/04 08:23:25;;;;;;;38.30;21.50;;;;;;;;;;5132159;27;20464;-49
2022/01/04 08:25:51;;;;;;;38.13;23.08;;;;;;;;;;5145012;27;20095;-51
2022/01/04 08:28:17;;;;;;;41.15;22.63;;;;;;;;;;5136746;27;20031;-52
2022/01/04 08:30:43;;;;;;;57.03;30.80;;;;;;;;;;5136027;27;20089;-51
2022/01/04 08:33:10;;;;;;;58.15;30.50;;;;;;;;;;5145112;27;20038;-49
2022/01/04 08:35:36;;;;;;;42.42;23.52;;;;;;;;;;5146237;27;20379;-49
2022/01/04 08:38:02;;;;;;;43.08;23.65;;;;;;;;;;5124026;27;20039;-50
2022/01/04 08:40:28;;;;;;;36.95;22.00;;;;;;;;;;5144515;27;20142;-48
2022/01/04 08:42:54;;;;;;;37.13;22.30;;;;;;;;;;5141450;27;20083;-49
2022/01/04 08:45:21;;;;;;;46.17;26.38;;;;;;;;;;5137440;27;20402;-50
2022/01/04 08:47:49;;;;;;;33.55;18.63;;;;;;;;;;5148844;27;20402;-51
2022/01/04 08:50:16;;;;;;;31.33;18.75;;;;;;;;;;5151149;27;20046;-50
2022/01/04 08:52:42;;;;;;;36.63;20.73;;;;;;;;;;5123710;27;20047;-49
2022/01/04 08:55:08;;;;;;;33.13;20.55;;;;;;;;;;5141387;27;20155;-54
2022/01/04 08:57:38;;;;;;;37.35;22.27;;;;;;;;;;5140336;27;20031;-48
2022/01/04 09:00:05;;;;;;;38.13;23.45;;;;;;;;;;5137692;27;20429;-48
2022/01/04 09:02:35;;;;;;;35.13;21.60;;;;;;;;;;5135322;27;20051;-50
2022/01/04 09:05:02;;;;;;;36.22;21.90;;;;;;;;;;5126206;27;20070;-51
2022/01/04 09:07:30;;;;;;;30.92;19.42;;;;;;;;;;5137566;27;20402;-50
2022/01/04 09:09:56;;;;;;;33.33;19.17;;;;;;;;;;5112211;27;20062;-50
2022/01/04 09:12:26;;;;;;;35.13;22.23;;;;;;;;;;5138641;27;20046;-50
2022/01/04 09:14:59;;;;;;;34.67;21.20;;;;;;;;;;5137100;27;20043;-50
2022/01/04 09:20:15;;;;;;;35.70;22.35;;;;;;;;;;5134457;27;20473;-48
2022/01/04 09:22:42;;;;;;;36.53;22.17;;;;;;;;;;5140348;27;20069;-48
2022/01/04 09:25:09;;;;;;;37.88;22.30;;;;;;;;;;5135302;27;20115;-50
2022/01/04 09:27:40;;;;;;;35.60;22.77;;;;;;;;;;5132803;27;20130;-48
2022/01/04 09:30:06;;;;;;;39.65;23.75;;;;;;;;;;5131570;27;20031;-52
2022/01/04 09:32:38;;;;;;;37.20;23.55;;;;;;;;;;5143920;27;20039;-48
2022/01/04 09:35:05;;;;;;;39.10;22.52;;;;;;;;;;5139160;27;20510;-48
2022/01/04 09:37:33;;;;;;;36.67;22.48;;;;;;;;;;5144912;27;20039;-47
2022/01/04 09:40:03;;;;;;;38.72;23.55;;;;;;;;;;5126449;28;20084;-48
2022/01/04 09:42:29;;;;;;;39.47;21.90;;;;;;;;;;5129642;27;20039;-48
2022/01/04 09:44:55;;;;;;;35.15;22.00;;;;;;;;;;5121516;28;20050;-52
2022/01/04 09:47:24;;;;;;;32.53;19.23;;;;;;;;;;5137371;27;20042;-51
2022/01/04 09:49:51;;;;;;;12.05;7.35;;;;;;;;;;5138888;27;20039;-47
2022/01/04 09:52:21;;;;;;;6.47;3.47;;;;;;;;;;5138534;27;20039;-47
2022/01/04 09:54:53;;;;;;;2.75;1.73;;;;;;;;;;5137841;27;20046;-48
2022/01/04 09:57:22;;;;;;;7.43;2.85;;;;;;;;;;5138640;27;20039;-47
2022/01/04 09:59:49;;;;;;;6.63;3.30;;;;;;;;;;5131265;27;20035;-47
2022/01/04 10:02:24;;;;;;;7.45;3.95;;;;;;;;;;5120856;27;20057;-49
2022/01/04 10:04:50;;;;;;;21.30;13.65;;;;;;;;;;5143910;27;20043;-52
2022/01/04 10:07:21;;;;;;;19.38;12.57;;;;;;;;;;5138393;27;20476;-47
2022/01/04 10:09:48;;;;;;;15.30;9.50;;;;;;;;;;5095588;28;20122;-53
2022/01/04 10:12:16;;;;;;;11.98;8.38;;;;;;;;;;5140129;27;20078;-49
2022/01/04 10:14:43;;;;;;;12.73;7.80;;;;;;;;;;5134997;27;20031;-49
2022/01/04 10:17:11;;;;;;;13.57;7.80;;;;;;;;;;5140280;27;20039;-47
2022/01/04 10:19:39;;;;;;;10.88;7.57;;;;;;;;;;5142461;27;20042;-48
2022/01/04 10:22:27;;;;;;;11.90;5.95;;;;;;;;;;5132193;27;20043;-48
2022/01/04 10:25:05;;;;;;;10.00;6.60;;;;;;;;;;5134519;27;20052;-48
2022/01/04 10:27:34;;;;;;;11.90;7.22;;;;;;;;;;5141180;27;20394;-49
2022/01/04 10:30:08;;;;;;;13.57;7.70;;;;;;;;;;5149304;27;20034;-49
2022/01/04 10:32:50;;;;;;;9.85;6.72;;;;;;;;;;5142439;27;20042;-48
2022/01/04 10:35:30;;;;;;;9.27;6.18;;;;;;;;;;5137293;27;20035;-48
2022/01/04 10:37:58;;;;;;;10.20;5.93;;;;;;;;;;5136479;27;20137;-48
2022/01/04 10:40:25;;;;;;;9.52;5.28;;;;;;;;;;5142959;27;20069;-49
2022/01/04 10:42:52;;;;;;;10.65;5.00;;;;;;;;;;5143324;27;20043;-51
2022/01/04 10:45:31;;;;;;;5.80;4.10;;;;;;;;;;5148844;27;20091;-48
2022/01/04 10:48:10;;;;;;;8.93;4.53;;;;;;;;;;5144363;27;20050;-48
2022/01/04 10:50:37;;;;;;;7.30;4.50;;;;;;;;;;5140946;27;20126;-52
2022/01/04 10:53:03;;;;;;;7.88;4.55;;;;;;;;;;5138658;27;20035;-48
2022/01/04 10:55:36;;;;;;;7.95;4.30;;;;;;;;;;5138985;27;20485;-50
2022/01/04 10:58:03;;;;;;;12.05;4.50;;;;;;;;;;5132888;27;20525;-49
2022/01/04 11:00:30;;;;;;;8.15;4.72;;;;;;;;;;5133277;27;20138;-48
2022/01/04 11:02:58;;;;;;;12.75;4.63;;;;;;;;;;5141433;27;20038;-48
2022/01/04 11:05:24;;;;;;;7.72;4.00;;;;;;;;;;5145323;27;20038;-51
2022/01/04 11:07:59;;;;;;;9.13;4.70;;;;;;;;;;5141917;27;20039;-51
2022/01/04 11:10:27;;;;;;;6.18;3.88;;;;;;;;;;5132977;27;20177;-49
2022/01/04 11:12:55;;;;;;;7.18;4.20;;;;;;;;;;5140667;27;20476;-48
2022/01/04 11:15:22;;;;;;;9.57;3.33;;;;;;;;;;5141462;27;20034;-49
2022/01/04 11:17:48;;;;;;;7.50;3.45;;;;;;;;;;5145898;27;20484;-49
2022/01/04 11:20:14;;;;;;;8.75;3.67;;;;;;;;;;5136985;27;20050;-48
2022/01/04 11:22:40;;;;;;;10.27;5.05;;;;;;;;;;5141320;27;20043;-48
2022/01/04 11:25:07;;;;;;;6.13;3.47;;;;;;;;;;5141311;27;20035;-48
2022/01/04 11:27:35;;;;;;;6.50;3.15;;;;;;;;;;5121150;27;20046;-49
2022/01/04 11:30:07;;;;;;;5.60;2.95;;;;;;;;;;5138557;27;20031;-49
2022/01/04 11:32:37;;;;;;;5.10;1.65;;;;;;;;;;5131665;27;20031;-51
2022/01/04 11:35:08;;;;;;;4.28;2.05;;;;;;;;;;5138222;27;20130;-48
2022/01/04 11:37:35;;;;;;;6.25;2.42;;;;;;;;;;5139116;27;20126;-49
2022/01/04 11:40:21;;;;;;;7.85;2.45;;;;;;;;;;5139702;27;20042;-48
2022/01/04 11:42:47;;;;;;;7.32;2.47;;;;;;;;;;5119274;27;20541;-48
2022/01/04 11:45:14;;;;;;;6.15;2.00;;;;;;;;;;5135004;27;20031;-49
2022/01/04 11:47:49;;;;;;;7.85;1.85;;;;;;;;;;5139180;27;20047;-47
2022/01/04 11:50:17;;;;;;;5.85;1.60;;;;;;;;;;5145744;27;20083;-50
2022/01/04 11:52:50;;;;;;;6.22;1.80;;;;;;;;;;5149490;27;20114;-49
2022/01/04 11:55:21;;;;;;;4.60;1.35;;;;;;;;;;5131981;27;20373;-47
2022/01/04 11:57:47;;;;;;;3.40;1.50;;;;;;;;;;5141138;27;20043;-49
2022/01/04 12:00:23;;;;;;;4.35;2.10;;;;;;;;;;5139869;27;20368;-50
2022/01/04 12:03:01;;;;;;;3.45;1.90;;;;;;;;;;5131029;27;20427;-52
2022/01/04 12:05:27;;;;;;;3.22;2.38;;;;;;;;;;5136548;27;20471;-49
2022/01/04 12:07:58;;;;;;;4.05;2.50;;;;;;;;;;5131764;27;20040;-51
2022/01/04 12:10:25;;;;;;;3.42;1.70;;;;;;;;;;5142066;27;20145;-48
2022/01/04 12:13:11;;;;;;;2.85;2.00;;;;;;;;;;5133691;27;20113;-49
2022/01/04 12:15:37;;;;;;;5.07;2.80;;;;;;;;;;5130868;27;20031;-47
2022/01/04 12:18:04;;;;;;;3.58;2.35;;;;;;;;;;5131268;27;20045;-47
2022/01/04 12:20:43;;;;;;;2.60;1.30;;;;;;;;;;5138325;27;20031;-47
2022/01/04 12:23:24;;;;;;;3.88;1.48;;;;;;;;;;5112171;27;20043;-47
2022/01/04 12:26:06;;;;;;;2.03;1.40;;;;;;;;;;5140828;27;20134;-47
2022/01/04 12:28:36;;;;;;;4.88;1.90;;;;;;;;;;5139289;27;20036;-49
2022/01/04 12:31:20;;;;;;;2.85;1.55;;;;;;;;;;5137127;27;20644;-47
2022/01/04 12:33:46;;;;;;;2.95;1.20;;;;;;;;;;5132141;27;20039;-47
2022/01/04 12:36:22;;;;;;;5.75;1.38;;;;;;;;;;5145252;27;20045;-50
2022/01/04 12:38:49;;;;;;;2.83;1.30;;;;;;;;;;5130595;27;20046;-50
2022/01/04 12:41:15;;;;;;;5.28;1.20;;;;;;;;;;5140843;27;20053;-50
2022/01/04 12:43:42;;;;;;;2.92;0.93;;;;;;;;;;5145482;27;20118;-49
2022/01/04 12:46:08;;;;;;;2.88;0.93;;;;;;;;;;5141610;27;20433;-47
2022/01/04 12:48:45;;;;;;;1.20;0.93;;;;;;;;;;5138296;27;20031;-50
2022/01/04 12:51:26;;;;;;;3.88;1.00;;;;;;;;;;5129771;27;20503;-49
2022/01/04 12:53:52;;;;;;;3.10;0.70;;;;;;;;;;5131140;27;20031;-48
2022/01/04 12:56:18;;;;;;;4.65;1.00;;;;;;;;;;5131710;27;20441;-50
2022/01/04 12:58:44;;;;;;;4.53;1.30;;;;;;;;;;5139250;27;20031;-47
2022/01/04 13:01:13;;;;;;;3.05;0.95;;;;;;;;;;5131644;27;20046;-47
2022/01/04 13:03:39;;;;;;;4.32;1.42;;;;;;;;;;5123215;27;20403;-48
2022/01/04 13:06:06;;;;;;;2.80;1.23;;;;;;;;;;5142617;27;20039;-47
2022/01/04 13:08:32;;;;;;;4.05;1.70;;;;;;;;;;5150112;27;20043;-47
2022/01/04 13:11:09;;;;;;;4.40;1.55;;;;;;;;;;5140090;27;20073;-48
2022/01/04 13:13:35;;;;;;;4.18;1.38;;;;;;;;;;5131025;27;20039;-47
2022/01/04 13:16:20;;;;;;;4.15;1.70;;;;;;;;;;5140268;27;20035;-49
2022/01/04 13:18:46;;;;;;;2.13;0.80;;;;;;;;;;5134329;27;20042;-51
2022/01/04 13:21:12;;;;;;;2.72;1.42;;;;;;;;;;5133667;27;20040;-48
2022/01/04 13:23:42;;;;;;;2.95;0.95;;;;;;;;;;5152297;27;20402;-49
2022/01/04 13:26:14;;;;;;;7.72;1.20;;;;;;;;;;5152233;27;20402;-49
2022/01/04 13:28:40;;;;;;;5.25;1.25;;;;;;;;;;5152072;27;20042;-50
2022/01/04 13:31:23;;;;;;;2.83;0.90;;;;;;;;;;5152507;27;20058;-49
2022/01/04 13:33:49;;;;;;;4.05;0.80;;;;;;;;;;5151907;27;20087;-49
2022/01/04 13:36:15;;;;;;;3.35;0.95;;;;;;;;;;5152538;27;20122;-46
2022/01/04 13:38:41;;;;;;;5.38;1.15;;;;;;;;;;5152741;27;20184;-49
2022/01/04 13:41:08;;;;;;;7.85;2.00;;;;;;;;;;5153096;27;20086;-49
2022/01/04 13:43:46;;;;;;;5.15;1.60;;;;;;;;;;5152484;27;20491;-49
2022/01/04 13:46:13;;;;;;;4.25;1.10;;;;;;;;;;5152099;27;20050;-49
2022/01/04 13:48:46;;;;;;;3.38;1.60;;;;;;;;;;5152268;27;20042;-52
2022/01/04 13:51:15;;;;;;;4.05;1.77;;;;;;;;;;5152642;27;20071;-49
2022/01/04 13:53:42;;;;;;;10.35;2.30;;;;;;;;;;5152755;27;20039;-52
2022/01/04 13:56:16;;;;;;;6.43;1.40;;;;;;;;;;5152769;27;20039;-49
2022/01/04 13:58:49;;;;;;;3.40;1.30;;;;;;;;;;5153404;27;20087;-49
2022/01/04 14:01:17;;;;;;;6.97;2.10;;;;;;;;;;5156490;27;20061;-49
2022/01/04 14:03:44;;;;;;;4.90;1.80;;;;;;;;;;5156667;27;20034;-49
2022/01/04 14:06:28;;;;;;;5.18;1.98;;;;;;;;;;5156648;27;20042;-50
2022/01/04 14:08:54;;;;;;;6.63;1.63;;;;;;;;;;5156578;27;20493;-52
2022/01/04 14:11:23;;;;;;;4.85;1.30;;;;;;;;;;5156142;27;20065;-49
2022/01/04 14:13:50;;;;;;;3.38;1.45;;;;;;;;;;5156225;27;20083;-48
2022/01/04 14:16:17;;;;;;;10.65;1.90;;;;;;;;;;5156320;27;20070;-52
2022/01/04 14:19:05;;;;;;;3.58;1.30;;;;;;;;;;5156130;27;20045;-49
2022/01/04 14:21:41;;;;;;;3.75;1.17;;;;;;;;;;5156242;27;20491;-47
2022/01/04 14:24:26;;;;;;;7.60;1.65;;;;;;;;;;5156325;27;20344;-52
2022/01/04 14:26:52;;;;;;;3.50;0.70;;;;;;;;;;5156187;27;20042;-48
2022/01/04 14:29:40;;;;;;;7.10;1.48;;;;;;;;;;5156552;27;20034;-48
2022/01/04 14:32:08;;;;;;;4.60;1.30;;;;;;;;;;5156399;27;20509;-47
2022/01/04 14:34:34;;;;;;;8.65;3.65;;;;;;;;;;5156207;27;20043;-49
2022/01/04 14:37:00;;;;;;;3.70;1.30;;;;;;;;;;5155583;27;20121;-48
2022/01/04 14:39:28;;;;;;;7.97;1.52;;;;;;;;;;5156050;27;20499;-48
2022/01/04 14:41:54;;;;;;;4.90;1.00;;;;;;;;;;5155329;27;20046;-47
2022/01/04 14:44:20;;;;;;;4.43;1.20;;;;;;;;;;5155726;27;20026;-48